sensor_id;sensor_type;location;lat;lon;timestamp;P1;durP1;ratioP1;P2;durP2;ratioP2
6223;SDS011;3145;42.726;23.342;2023-04-06T00:00:22;24.13;;;17.97;;
6223;SDS011;3145;42.726;23.342;2023-04-06T00:02:49;20.20;;;17.17;;
6223;SDS011;3145;42.726;23.342;2023-04-06T00:05:17;21.93;;;17.83;;
6223;SDS011;3145;42.726;23.342;2023-04-06T00:07:45;23.60;;;18.63;;
6223;SDS011;3145;42.726;23.342;2023-04-06T00:10:12;25.03;;;19.30;;
6223;SDS011;3145;42.726;23.342;2023-04-06T00:12:39;21.03;;;16.50;;
6223;SDS011;3145;42.726;23.342;2023-04-06T00:15:06;18.53;;;15.50;;
6223;SDS011;3145;42.726;23.342;2023-04-06T00:17:33;18.57;;;16.47;;
6223;SDS011;3145;42.726;23.342;2023-04-06T00:20:00;17.87;;;15.80;;
6223;SDS011;3145;42.726;23.342;2023-04-06T00:22:27;21.03;;;17.17;;
6223;SDS011;3145;42.726;23.342;2023-04-06T00:24:55;19.90;;;16.73;;
6223;SDS011;3145;42.726;23.342;2023-04-06T00:27:22;21.20;;;16.93;;
6223;SDS011;3145;42.726;23.342;2023-04-06T00:29:49;19.53;;;16.23;;
6223;SDS011;3145;42.726;23.342;2023-04-06T00:32:16;21.83;;;15.43;;
6223;SDS011;3145;42.726;23.342;2023-04-06T00:34:43;17.87;;;15.87;;
6223;SDS011;3145;42.726;23.342;2023-04-06T00:37:10;19.17;;;17.13;;
6223;SDS011;3145;42.726;23.342;2023-04-06T00:39:37;26.60;;;17.23;;
6223;SDS011;3145;42.726;23.342;2023-04-06T00:42:07;25.63;;;20.07;;
6223;SDS011;3145;42.726;23.342;2023-04-06T00:44:37;26.10;;;19.57;;
6223;SDS011;3145;42.726;23.342;2023-04-06T00:47:04;23.87;;;17.77;;
6223;SDS011;3145;42.726;23.342;2023-04-06T00:49:32;20.23;;;17.97;;
6223;SDS011;3145;42.726;23.342;2023-04-06T00:51:59;27.70;;;20.80;;
6223;SDS011;3145;42.726;23.342;2023-04-06T00:54:26;24.73;;;19.43;;
6223;SDS011;3145;42.726;23.342;2023-04-06T00:56:52;24.63;;;19.07;;
6223;SDS011;3145;42.726;23.342;2023-04-06T00:59:21;23.73;;;18.07;;
6223;SDS011;3145;42.726;23.342;2023-04-06T01:01:48;21.10;;;17.57;;
6223;SDS011;3145;42.726;23.342;2023-04-06T01:04:15;24.33;;;18.57;;
6223;SDS011;3145;42.726;23.342;2023-04-06T01:06:41;21.50;;;17.07;;
6223;SDS011;3145;42.726;23.342;2023-04-06T01:09:08;19.97;;;17.07;;
6223;SDS011;3145;42.726;23.342;2023-04-06T01:11:35;19.37;;;16.77;;
6223;SDS011;3145;42.726;23.342;2023-04-06T01:14:02;19.53;;;16.57;;
6223;SDS011;3145;42.726;23.342;2023-04-06T01:16:31;18.53;;;16.33;;
6223;SDS011;3145;42.726;23.342;2023-04-06T01:18:57;18.97;;;15.80;;
6223;SDS011;3145;42.726;23.342;2023-04-06T01:21:24;22.43;;;15.63;;
6223;SDS011;3145;42.726;23.342;2023-04-06T01:23:53;17.50;;;15.47;;
6223;SDS011;3145;42.726;23.342;2023-04-06T01:26:19;18.97;;;15.97;;
6223;SDS011;3145;42.726;23.342;2023-04-06T01:28:46;19.37;;;16.10;;
6223;SDS011;3145;42.726;23.342;2023-04-06T01:31:13;18.33;;;16.10;;
6223;SDS011;3145;42.726;23.342;2023-04-06T01:33:40;18.53;;;15.43;;
6223;SDS011;3145;42.726;23.342;2023-04-06T01:36:07;18.67;;;16.27;;
6223;SDS011;3145;42.726;23.342;2023-04-06T01:38:34;19.17;;;16.27;;
6223;SDS011;3145;42.726;23.342;2023-04-06T01:41:02;18.53;;;16.20;;
6223;SDS011;3145;42.726;23.342;2023-04-06T01:43:29;19.40;;;16.40;;
6223;SDS011;3145;42.726;23.342;2023-04-06T01:45:56;20.57;;;17.63;;
6223;SDS011;3145;42.726;23.342;2023-04-06T01:48:23;22.10;;;17.23;;
6223;SDS011;3145;42.726;23.342;2023-04-06T01:50:50;21.07;;;17.13;;
6223;SDS011;3145;42.726;23.342;2023-04-06T01:53:17;21.70;;;17.87;;
6223;SDS011;3145;42.726;23.342;2023-04-06T01:55:43;17.20;;;15.40;;
6223;SDS011;3145;42.726;23.342;2023-04-06T01:58:12;17.70;;;15.83;;
6223;SDS011;3145;42.726;23.342;2023-04-06T02:00:39;19.80;;;16.90;;
6223;SDS011;3145;42.726;23.342;2023-04-06T02:03:05;18.37;;;15.70;;
6223;SDS011;3145;42.726;23.342;2023-04-06T02:05:33;20.97;;;17.23;;
6223;SDS011;3145;42.726;23.342;2023-04-06T02:08:03;19.30;;;16.23;;
6223;SDS011;3145;42.726;23.342;2023-04-06T02:10:29;19.37;;;15.90;;
6223;SDS011;3145;42.726;23.342;2023-04-06T02:12:56;25.63;;;17.40;;
6223;SDS011;3145;42.726;23.342;2023-04-06T02:15:24;21.30;;;18.80;;
6223;SDS011;3145;42.726;23.342;2023-04-06T02:17:51;23.17;;;18.30;;
6223;SDS011;3145;42.726;23.342;2023-04-06T02:20:18;22.20;;;18.50;;
6223;SDS011;3145;42.726;23.342;2023-04-06T02:22:45;23.87;;;18.63;;
6223;SDS011;3145;42.726;23.342;2023-04-06T02:25:12;20.83;;;16.70;;
6223;SDS011;3145;42.726;23.342;2023-04-06T02:27:39;23.60;;;18.30;;
6223;SDS011;3145;42.726;23.342;2023-04-06T02:30:06;24.23;;;19.07;;
6223;SDS011;3145;42.726;23.342;2023-04-06T02:32:35;24.53;;;17.97;;
6223;SDS011;3145;42.726;23.342;2023-04-06T02:35:02;25.53;;;21.27;;
6223;SDS011;3145;42.726;23.342;2023-04-06T02:37:29;25.83;;;20.63;;
6223;SDS011;3145;42.726;23.342;2023-04-06T02:39:55;30.50;;;20.10;;
6223;SDS011;3145;42.726;23.342;2023-04-06T02:42:22;24.50;;;18.83;;
6223;SDS011;3145;42.726;23.342;2023-04-06T02:44:49;29.40;;;19.13;;
6223;SDS011;3145;42.726;23.342;2023-04-06T02:47:16;27.10;;;20.93;;
6223;SDS011;3145;42.726;23.342;2023-04-06T02:49:44;23.93;;;18.17;;
6223;SDS011;3145;42.726;23.342;2023-04-06T02:52:10;24.00;;;17.77;;
6223;SDS011;3145;42.726;23.342;2023-04-06T02:54:37;28.80;;;18.00;;
6223;SDS011;3145;42.726;23.342;2023-04-06T02:57:04;22.50;;;17.10;;
6223;SDS011;3145;42.726;23.342;2023-04-06T02:59:31;22.27;;;17.63;;
6223;SDS011;3145;42.726;23.342;2023-04-06T03:01:58;21.27;;;17.77;;
6223;SDS011;3145;42.726;23.342;2023-04-06T03:04:25;22.47;;;18.57;;
6223;SDS011;3145;42.726;23.342;2023-04-06T03:06:54;21.90;;;17.13;;
6223;SDS011;3145;42.726;23.342;2023-04-06T03:09:21;23.23;;;18.43;;
6223;SDS011;3145;42.726;23.342;2023-04-06T03:11:47;21.77;;;16.73;;
6223;SDS011;3145;42.726;23.342;2023-04-06T03:14:14;23.20;;;16.87;;
6223;SDS011;3145;42.726;23.342;2023-04-06T03:16:42;21.50;;;16.73;;
6223;SDS011;3145;42.726;23.342;2023-04-06T03:19:09;21.37;;;16.47;;
6223;SDS011;3145;42.726;23.342;2023-04-06T03:21:36;25.00;;;18.07;;
6223;SDS011;3145;42.726;23.342;2023-04-06T03:24:07;23.40;;;17.00;;
6223;SDS011;3145;42.726;23.342;2023-04-06T03:26:34;20.57;;;16.67;;
6223;SDS011;3145;42.726;23.342;2023-04-06T03:29:01;17.27;;;14.87;;
6223;SDS011;3145;42.726;23.342;2023-04-06T03:31:28;20.00;;;16.77;;
6223;SDS011;3145;42.726;23.342;2023-04-06T03:33:55;17.97;;;14.23;;
6223;SDS011;3145;42.726;23.342;2023-04-06T03:36:22;14.53;;;12.80;;
6223;SDS011;3145;42.726;23.342;2023-04-06T03:38:48;15.80;;;14.20;;
6223;SDS011;3145;42.726;23.342;2023-04-06T03:41:17;16.97;;;14.53;;
6223;SDS011;3145;42.726;23.342;2023-04-06T03:43:43;21.30;;;15.60;;
6223;SDS011;3145;42.726;23.342;2023-04-06T03:46:10;20.07;;;17.90;;
6223;SDS011;3145;42.726;23.342;2023-04-06T03:48:37;23.83;;;18.27;;
6223;SDS011;3145;42.726;23.342;2023-04-06T03:51:04;26.63;;;19.13;;
6223;SDS011;3145;42.726;23.342;2023-04-06T03:53:31;18.10;;;15.40;;
6223;SDS011;3145;42.726;23.342;2023-04-06T03:55:58;27.43;;;20.83;;
6223;SDS011;3145;42.726;23.342;2023-04-06T03:58:26;23.60;;;19.20;;
6223;SDS011;3145;42.726;23.342;2023-04-06T04:00:53;22.40;;;17.57;;
6223;SDS011;3145;42.726;23.342;2023-04-06T04:03:20;23.63;;;18.00;;
6223;SDS011;3145;42.726;23.342;2023-04-06T04:05:48;28.17;;;19.53;;
6223;SDS011;3145;42.726;23.342;2023-04-06T04:08:15;24.20;;;17.97;;
6223;SDS011;3145;42.726;23.342;2023-04-06T04:10:42;22.43;;;17.60;;
6223;SDS011;3145;42.726;23.342;2023-04-06T04:13:08;20.10;;;16.40;;
6223;SDS011;3145;42.726;23.342;2023-04-06T04:15:36;18.77;;;16.07;;
6223;SDS011;3145;42.726;23.342;2023-04-06T04:18:03;19.47;;;15.87;;
6223;SDS011;3145;42.726;23.342;2023-04-06T04:20:30;20.63;;;16.27;;
6223;SDS011;3145;42.726;23.342;2023-04-06T04:22:57;19.00;;;16.53;;
6223;SDS011;3145;42.726;23.342;2023-04-06T04:25:24;26.30;;;18.40;;
6223;SDS011;3145;42.726;23.342;2023-04-06T04:27:51;19.87;;;16.70;;
6223;SDS011;3145;42.726;23.342;2023-04-06T04:30:17;21.53;;;17.27;;
6223;SDS011;3145;42.726;23.342;2023-04-06T04:32:46;26.57;;;18.80;;
6223;SDS011;3145;42.726;23.342;2023-04-06T04:35:12;18.73;;;16.47;;
6223;SDS011;3145;42.726;23.342;2023-04-06T04:37:40;25.50;;;19.60;;
6223;SDS011;3145;42.726;23.342;2023-04-06T04:40:07;24.97;;;19.77;;
6223;SDS011;3145;42.726;23.342;2023-04-06T04:42:35;26.47;;;18.83;;
6223;SDS011;3145;42.726;23.342;2023-04-06T04:45:01;27.07;;;19.40;;
6223;SDS011;3145;42.726;23.342;2023-04-06T04:47:28;29.57;;;21.27;;
6223;SDS011;3145;42.726;23.342;2023-04-06T04:49:56;26.73;;;19.57;;
6223;SDS011;3145;42.726;23.342;2023-04-06T04:52:23;24.83;;;19.07;;
6223;SDS011;3145;42.726;23.342;2023-04-06T04:54:50;26.30;;;19.60;;
6223;SDS011;3145;42.726;23.342;2023-04-06T04:57:16;27.83;;;18.90;;
6223;SDS011;3145;42.726;23.342;2023-04-06T04:59:43;26.27;;;19.83;;
6223;SDS011;3145;42.726;23.342;2023-04-06T05:02:10;26.17;;;20.37;;
6223;SDS011;3145;42.726;23.342;2023-04-06T05:04:37;27.00;;;20.80;;
6223;SDS011;3145;42.726;23.342;2023-04-06T05:07:05;26.37;;;19.20;;
6223;SDS011;3145;42.726;23.342;2023-04-06T05:09:33;25.63;;;19.90;;
6223;SDS011;3145;42.726;23.342;2023-04-06T05:12:00;28.37;;;18.63;;
6223;SDS011;3145;42.726;23.342;2023-04-06T05:14:27;37.27;;;18.20;;
6223;SDS011;3145;42.726;23.342;2023-04-06T05:16:55;29.03;;;18.83;;
6223;SDS011;3145;42.726;23.342;2023-04-06T05:19:22;26.87;;;19.93;;
6223;SDS011;3145;42.726;23.342;2023-04-06T05:21:49;35.07;;;22.57;;
6223;SDS011;3145;42.726;23.342;2023-04-06T05:24:20;25.23;;;18.83;;
6223;SDS011;3145;42.726;23.342;2023-04-06T05:26:47;29.63;;;20.33;;
6223;SDS011;3145;42.726;23.342;2023-04-06T05:29:15;29.47;;;19.87;;
6223;SDS011;3145;42.726;23.342;2023-04-06T05:31:42;28.67;;;20.10;;
6223;SDS011;3145;42.726;23.342;2023-04-06T05:34:09;28.17;;;19.83;;
6223;SDS011;3145;42.726;23.342;2023-04-06T05:36:37;24.47;;;20.17;;
6223;SDS011;3145;42.726;23.342;2023-04-06T05:39:05;23.47;;;18.20;;
6223;SDS011;3145;42.726;23.342;2023-04-06T05:41:33;26.87;;;19.33;;
6223;SDS011;3145;42.726;23.342;2023-04-06T05:44:00;19.73;;;15.93;;
6223;SDS011;3145;42.726;23.342;2023-04-06T05:46:27;23.30;;;17.40;;
6223;SDS011;3145;42.726;23.342;2023-04-06T05:48:53;24.33;;;18.70;;
6223;SDS011;3145;42.726;23.342;2023-04-06T05:51:20;24.10;;;17.40;;
6223;SDS011;3145;42.726;23.342;2023-04-06T05:53:47;25.33;;;18.00;;
6223;SDS011;3145;42.726;23.342;2023-04-06T05:56:14;32.70;;;21.93;;
6223;SDS011;3145;42.726;23.342;2023-04-06T05:58:43;33.80;;;22.20;;
6223;SDS011;3145;42.726;23.342;2023-04-06T06:01:10;30.10;;;21.00;;
6223;SDS011;3145;42.726;23.342;2023-04-06T06:03:37;29.33;;;20.87;;
6223;SDS011;3145;42.726;23.342;2023-04-06T06:06:04;27.23;;;22.03;;
6223;SDS011;3145;42.726;23.342;2023-04-06T06:08:31;29.60;;;19.47;;
6223;SDS011;3145;42.726;23.342;2023-04-06T06:10:58;30.63;;;21.60;;
6223;SDS011;3145;42.726;23.342;2023-04-06T06:13:25;25.27;;;20.77;;
6223;SDS011;3145;42.726;23.342;2023-04-06T06:15:53;28.10;;;20.13;;
6223;SDS011;3145;42.726;23.342;2023-04-06T06:18:20;34.47;;;24.70;;
6223;SDS011;3145;42.726;23.342;2023-04-06T06:20:47;28.13;;;19.97;;
6223;SDS011;3145;42.726;23.342;2023-04-06T06:23:14;32.33;;;21.20;;
6223;SDS011;3145;42.726;23.342;2023-04-06T06:25:40;34.60;;;22.07;;
6223;SDS011;3145;42.726;23.342;2023-04-06T06:28:07;27.87;;;19.57;;
6223;SDS011;3145;42.726;23.342;2023-04-06T06:30:34;27.70;;;19.87;;
6223;SDS011;3145;42.726;23.342;2023-04-06T06:33:02;26.27;;;18.23;;
6223;SDS011;3145;42.726;23.342;2023-04-06T06:35:29;32.57;;;23.50;;
6223;SDS011;3145;42.726;23.342;2023-04-06T06:37:56;30.37;;;21.67;;
6223;SDS011;3145;42.726;23.342;2023-04-06T06:40:22;28.10;;;20.77;;
6223;SDS011;3145;42.726;23.342;2023-04-06T06:42:51;23.03;;;19.27;;
6223;SDS011;3145;42.726;23.342;2023-04-06T06:45:18;31.97;;;20.30;;
6223;SDS011;3145;42.726;23.342;2023-04-06T06:47:45;25.93;;;18.53;;
6223;SDS011;3145;42.726;23.342;2023-04-06T06:50:13;28.97;;;21.57;;
6223;SDS011;3145;42.726;23.342;2023-04-06T06:52:40;31.87;;;22.03;;
6223;SDS011;3145;42.726;23.342;2023-04-06T06:55:08;29.27;;;17.33;;
6223;SDS011;3145;42.726;23.342;2023-04-06T06:57:35;26.10;;;18.77;;
6223;SDS011;3145;42.726;23.342;2023-04-06T07:00:03;22.30;;;17.20;;
6223;SDS011;3145;42.726;23.342;2023-04-06T07:02:33;31.03;;;19.03;;
6223;SDS011;3145;42.726;23.342;2023-04-06T07:05:00;29.10;;;18.60;;
6223;SDS011;3145;42.726;23.342;2023-04-06T07:07:28;29.70;;;19.03;;
6223;SDS011;3145;42.726;23.342;2023-04-06T07:09:55;32.30;;;20.80;;
6223;SDS011;3145;42.726;23.342;2023-04-06T07:12:22;25.17;;;16.97;;
6223;SDS011;3145;42.726;23.342;2023-04-06T07:14:49;26.27;;;19.20;;
6223;SDS011;3145;42.726;23.342;2023-04-06T07:17:16;33.57;;;20.80;;
6223;SDS011;3145;42.726;23.342;2023-04-06T07:19:42;29.60;;;21.07;;
6223;SDS011;3145;42.726;23.342;2023-04-06T07:22:10;22.27;;;16.73;;
6223;SDS011;3145;42.726;23.342;2023-04-06T07:24:38;26.70;;;18.97;;
6223;SDS011;3145;42.726;23.342;2023-04-06T07:27:05;24.70;;;17.43;;
6223;SDS011;3145;42.726;23.342;2023-04-06T07:29:32;32.23;;;19.20;;
6223;SDS011;3145;42.726;23.342;2023-04-06T07:31:59;23.10;;;18.07;;
6223;SDS011;3145;42.726;23.342;2023-04-06T07:34:26;26.23;;;18.43;;
6223;SDS011;3145;42.726;23.342;2023-04-06T07:36:52;27.47;;;19.67;;
6223;SDS011;3145;42.726;23.342;2023-04-06T07:39:19;27.77;;;19.77;;
6223;SDS011;3145;42.726;23.342;2023-04-06T07:41:47;21.87;;;17.17;;
6223;SDS011;3145;42.726;23.342;2023-04-06T07:44:14;24.27;;;17.60;;
6223;SDS011;3145;42.726;23.342;2023-04-06T07:46:41;30.10;;;19.43;;
6223;SDS011;3145;42.726;23.342;2023-04-06T07:49:08;23.00;;;17.07;;
6223;SDS011;3145;42.726;23.342;2023-04-06T07:51:35;30.20;;;19.63;;
6223;SDS011;3145;42.726;23.342;2023-04-06T07:54:02;28.67;;;20.67;;
6223;SDS011;3145;42.726;23.342;2023-04-06T07:56:29;25.07;;;18.23;;
6223;SDS011;3145;42.726;23.342;2023-04-06T07:58:57;25.50;;;19.53;;
6223;SDS011;3145;42.726;23.342;2023-04-06T08:01:24;21.63;;;17.20;;
6223;SDS011;3145;42.726;23.342;2023-04-06T08:03:51;21.17;;;16.30;;
6223;SDS011;3145;42.726;23.342;2023-04-06T08:06:20;37.67;;;22.03;;
6223;SDS011;3145;42.726;23.342;2023-04-06T08:08:47;25.37;;;18.10;;
6223;SDS011;3145;42.726;23.342;2023-04-06T08:11:14;25.67;;;19.73;;
6223;SDS011;3145;42.726;23.342;2023-04-06T08:13:40;18.87;;;13.73;;
6223;SDS011;3145;42.726;23.342;2023-04-06T08:16:09;16.83;;;13.33;;
6223;SDS011;3145;42.726;23.342;2023-04-06T08:18:35;18.40;;;14.37;;
6223;SDS011;3145;42.726;23.342;2023-04-06T08:21:02;30.43;;;16.30;;
6223;SDS011;3145;42.726;23.342;2023-04-06T08:23:29;16.27;;;14.03;;
6223;SDS011;3145;42.726;23.342;2023-04-06T08:25:56;34.90;;;15.63;;
6223;SDS011;3145;42.726;23.342;2023-04-06T08:28:22;18.57;;;14.77;;
6223;SDS011;3145;42.726;23.342;2023-04-06T08:30:49;15.30;;;12.73;;
6223;SDS011;3145;42.726;23.342;2023-04-06T08:33:17;16.07;;;14.37;;
6223;SDS011;3145;42.726;23.342;2023-04-06T08:35:44;27.50;;;19.03;;
6223;SDS011;3145;42.726;23.342;2023-04-06T08:38:11;22.77;;;18.47;;
6223;SDS011;3145;42.726;23.342;2023-04-06T08:40:38;24.73;;;16.97;;
6223;SDS011;3145;42.726;23.342;2023-04-06T08:43:06;14.70;;;12.97;;
6223;SDS011;3145;42.726;23.342;2023-04-06T08:45:36;15.00;;;12.40;;
6223;SDS011;3145;42.726;23.342;2023-04-06T08:48:04;15.57;;;14.00;;
6223;SDS011;3145;42.726;23.342;2023-04-06T08:50:33;17.73;;;13.77;;
6223;SDS011;3145;42.726;23.342;2023-04-06T08:53:00;17.87;;;13.97;;
6223;SDS011;3145;42.726;23.342;2023-04-06T08:55:28;15.77;;;13.00;;
6223;SDS011;3145;42.726;23.342;2023-04-06T08:57:55;13.80;;;12.60;;
6223;SDS011;3145;42.726;23.342;2023-04-06T09:00:23;16.73;;;14.30;;
6223;SDS011;3145;42.726;23.342;2023-04-06T09:02:51;18.40;;;14.77;;
6223;SDS011;3145;42.726;23.342;2023-04-06T09:05:21;14.53;;;12.23;;
6223;SDS011;3145;42.726;23.342;2023-04-06T09:07:52;15.23;;;13.03;;
6223;SDS011;3145;42.726;23.342;2023-04-06T09:10:19;15.27;;;13.40;;
6223;SDS011;3145;42.726;23.342;2023-04-06T09:12:48;15.93;;;14.23;;
6223;SDS011;3145;42.726;23.342;2023-04-06T09:15:19;21.57;;;14.10;;
6223;SDS011;3145;42.726;23.342;2023-04-06T09:17:47;15.70;;;13.63;;
6223;SDS011;3145;42.726;23.342;2023-04-06T09:20:14;13.90;;;12.17;;
6223;SDS011;3145;42.726;23.342;2023-04-06T09:22:42;15.20;;;12.63;;
6223;SDS011;3145;42.726;23.342;2023-04-06T09:25:17;16.00;;;13.80;;
6223;SDS011;3145;42.726;23.342;2023-04-06T09:27:45;20.13;;;13.97;;
6223;SDS011;3145;42.726;23.342;2023-04-06T09:30:12;19.70;;;15.13;;
6223;SDS011;3145;42.726;23.342;2023-04-06T09:32:45;19.23;;;11.97;;
6223;SDS011;3145;42.726;23.342;2023-04-06T09:35:13;16.87;;;13.60;;
6223;SDS011;3145;42.726;23.342;2023-04-06T09:37:40;16.67;;;11.97;;
6223;SDS011;3145;42.726;23.342;2023-04-06T09:40:07;14.27;;;12.63;;
6223;SDS011;3145;42.726;23.342;2023-04-06T09:42:36;19.57;;;13.03;;
6223;SDS011;3145;42.726;23.342;2023-04-06T09:45:03;13.60;;;11.97;;
6223;SDS011;3145;42.726;23.342;2023-04-06T09:47:31;20.40;;;13.37;;
6223;SDS011;3145;42.726;23.342;2023-04-06T09:49:58;18.33;;;14.93;;
6223;SDS011;3145;42.726;23.342;2023-04-06T09:52:26;16.03;;;13.70;;
6223;SDS011;3145;42.726;23.342;2023-04-06T09:54:59;12.87;;;11.57;;
6223;SDS011;3145;42.726;23.342;2023-04-06T09:57:31;14.10;;;12.70;;
6223;SDS011;3145;42.726;23.342;2023-04-06T10:00:03;15.00;;;13.40;;
6223;SDS011;3145;42.726;23.342;2023-04-06T10:02:35;16.50;;;14.47;;
6223;SDS011;3145;42.726;23.342;2023-04-06T10:05:12;15.63;;;13.27;;
6223;SDS011;3145;42.726;23.342;2023-04-06T10:07:45;17.83;;;15.30;;
6223;SDS011;3145;42.726;23.342;2023-04-06T10:10:15;20.87;;;15.47;;
6223;SDS011;3145;42.726;23.342;2023-04-06T10:12:44;20.27;;;15.47;;
6223;SDS011;3145;42.726;23.342;2023-04-06T10:15:13;16.07;;;14.20;;
6223;SDS011;3145;42.726;23.342;2023-04-06T10:17:40;18.13;;;16.33;;
6223;SDS011;3145;42.726;23.342;2023-04-06T10:20:09;19.07;;;16.70;;
6223;SDS011;3145;42.726;23.342;2023-04-06T10:22:41;15.67;;;14.00;;
6223;SDS011;3145;42.726;23.342;2023-04-06T10:25:15;16.10;;;14.43;;
6223;SDS011;3145;42.726;23.342;2023-04-06T10:27:42;16.20;;;13.83;;
6223;SDS011;3145;42.726;23.342;2023-04-06T10:30:11;16.80;;;11.87;;
6223;SDS011;3145;42.726;23.342;2023-04-06T10:32:42;16.13;;;13.13;;
6223;SDS011;3145;42.726;23.342;2023-04-06T10:35:09;13.63;;;12.40;;
6223;SDS011;3145;42.726;23.342;2023-04-06T10:37:48;13.87;;;11.57;;
6223;SDS011;3145;42.726;23.342;2023-04-06T10:40:20;14.37;;;12.33;;
6223;SDS011;3145;42.726;23.342;2023-04-06T10:42:49;16.53;;;12.30;;
6223;SDS011;3145;42.726;23.342;2023-04-06T10:45:21;13.93;;;12.23;;
6223;SDS011;3145;42.726;23.342;2023-04-06T10:47:50;12.07;;;10.77;;
6223;SDS011;3145;42.726;23.342;2023-04-06T10:50:19;15.87;;;12.23;;
6223;SDS011;3145;42.726;23.342;2023-04-06T10:52:46;14.97;;;13.47;;
6223;SDS011;3145;42.726;23.342;2023-04-06T10:55:13;15.33;;;11.33;;
6223;SDS011;3145;42.726;23.342;2023-04-06T10:57:41;16.63;;;13.77;;
6223;SDS011;3145;42.726;23.342;2023-04-06T11:00:08;16.40;;;12.20;;
6223;SDS011;3145;42.726;23.342;2023-04-06T11:02:37;13.97;;;12.50;;
6223;SDS011;3145;42.726;23.342;2023-04-06T11:05:04;20.00;;;12.83;;
6223;SDS011;3145;42.726;23.342;2023-04-06T11:07:31;17.30;;;13.37;;
6223;SDS011;3145;42.726;23.342;2023-04-06T11:09:58;16.83;;;12.90;;
6223;SDS011;3145;42.726;23.342;2023-04-06T11:12:26;14.40;;;12.97;;
6223;SDS011;3145;42.726;23.342;2023-04-06T11:14:54;13.47;;;12.17;;
6223;SDS011;3145;42.726;23.342;2023-04-06T11:17:26;16.03;;;12.70;;
6223;SDS011;3145;42.726;23.342;2023-04-06T11:19:54;12.17;;;10.97;;
6223;SDS011;3145;42.726;23.342;2023-04-06T11:22:21;13.90;;;12.40;;
6223;SDS011;3145;42.726;23.342;2023-04-06T11:24:48;14.57;;;12.60;;
6223;SDS011;3145;42.726;23.342;2023-04-06T11:27:15;15.03;;;12.47;;
6223;SDS011;3145;42.726;23.342;2023-04-06T11:29:43;14.03;;;11.43;;
6223;SDS011;3145;42.726;23.342;2023-04-06T11:32:19;13.50;;;12.20;;
6223;SDS011;3145;42.726;23.342;2023-04-06T11:34:46;14.60;;;11.20;;
6223;SDS011;3145;42.726;23.342;2023-04-06T11:37:15;13.57;;;12.17;;
6223;SDS011;3145;42.726;23.342;2023-04-06T11:39:43;13.67;;;12.37;;
6223;SDS011;3145;42.726;23.342;2023-04-06T11:42:20;14.43;;;13.00;;
6223;SDS011;3145;42.726;23.342;2023-04-06T11:44:49;14.83;;;13.20;;
6223;SDS011;3145;42.726;23.342;2023-04-06T11:47:17;17.20;;;12.07;;
6223;SDS011;3145;42.726;23.342;2023-04-06T11:49:45;13.33;;;11.63;;
6223;SDS011;3145;42.726;23.342;2023-04-06T11:52:17;14.63;;;12.60;;
6223;SDS011;3145;42.726;23.342;2023-04-06T11:54:45;15.00;;;12.23;;
6223;SDS011;3145;42.726;23.342;2023-04-06T11:57:13;11.90;;;10.90;;
6223;SDS011;3145;42.726;23.342;2023-04-06T11:59:41;16.17;;;11.87;;
6223;SDS011;3145;42.726;23.342;2023-04-06T12:02:08;14.17;;;12.47;;
6223;SDS011;3145;42.726;23.342;2023-04-06T12:04:35;11.77;;;10.70;;
6223;SDS011;3145;42.726;23.342;2023-04-06T12:07:02;12.37;;;11.10;;
6223;SDS011;3145;42.726;23.342;2023-04-06T12:09:31;13.47;;;12.10;;
6223;SDS011;3145;42.726;23.342;2023-04-06T12:11:59;15.33;;;11.77;;
6223;SDS011;3145;42.726;23.342;2023-04-06T12:14:26;20.33;;;15.80;;
6223;SDS011;3145;42.726;23.342;2023-04-06T12:16:53;13.10;;;11.90;;
6223;SDS011;3145;42.726;23.342;2023-04-06T12:19:19;12.53;;;11.37;;
6223;SDS011;3145;42.726;23.342;2023-04-06T12:21:50;14.57;;;12.30;;
6223;SDS011;3145;42.726;23.342;2023-04-06T12:24:17;12.63;;;11.33;;
6223;SDS011;3145;42.726;23.342;2023-04-06T12:26:45;13.63;;;12.10;;
6223;SDS011;3145;42.726;23.342;2023-04-06T12:29:12;15.40;;;12.23;;
6223;SDS011;3145;42.726;23.342;2023-04-06T12:31:39;17.87;;;13.67;;
6223;SDS011;3145;42.726;23.342;2023-04-06T12:34:08;19.70;;;15.17;;
6223;SDS011;3145;42.726;23.342;2023-04-06T12:36:36;17.57;;;15.67;;
6223;SDS011;3145;42.726;23.342;2023-04-06T12:39:03;16.57;;;13.60;;
6223;SDS011;3145;42.726;23.342;2023-04-06T12:41:30;17.17;;;12.47;;
6223;SDS011;3145;42.726;23.342;2023-04-06T12:43:59;15.43;;;13.83;;
6223;SDS011;3145;42.726;23.342;2023-04-06T12:46:26;15.20;;;13.70;;
6223;SDS011;3145;42.726;23.342;2023-04-06T12:48:54;12.20;;;10.93;;
6223;SDS011;3145;42.726;23.342;2023-04-06T12:51:22;13.13;;;11.80;;
6223;SDS011;3145;42.726;23.342;2023-04-06T12:53:50;14.77;;;13.17;;
6223;SDS011;3145;42.726;23.342;2023-04-06T12:56:17;15.13;;;12.90;;
6223;SDS011;3145;42.726;23.342;2023-04-06T12:58:46;19.30;;;15.10;;
6223;SDS011;3145;42.726;23.342;2023-04-06T13:01:14;21.77;;;14.57;;
6223;SDS011;3145;42.726;23.342;2023-04-06T13:03:41;15.07;;;13.50;;
6223;SDS011;3145;42.726;23.342;2023-04-06T13:06:08;13.97;;;12.57;;
6223;SDS011;3145;42.726;23.342;2023-04-06T13:08:36;16.70;;;14.90;;
6223;SDS011;3145;42.726;23.342;2023-04-06T13:11:03;16.77;;;14.67;;
6223;SDS011;3145;42.726;23.342;2023-04-06T13:13:33;21.57;;;16.00;;
6223;SDS011;3145;42.726;23.342;2023-04-06T13:16:00;20.37;;;15.93;;
6223;SDS011;3145;42.726;23.342;2023-04-06T13:18:31;17.13;;;14.20;;
6223;SDS011;3145;42.726;23.342;2023-04-06T13:20:59;23.27;;;16.73;;
6223;SDS011;3145;42.726;23.342;2023-04-06T13:23:25;21.17;;;15.93;;
6223;SDS011;3145;42.726;23.342;2023-04-06T13:25:59;16.77;;;14.03;;
6223;SDS011;3145;42.726;23.342;2023-04-06T13:28:26;18.77;;;15.17;;
6223;SDS011;3145;42.726;23.342;2023-04-06T13:30:54;17.67;;;12.87;;
6223;SDS011;3145;42.726;23.342;2023-04-06T13:33:21;14.43;;;12.43;;
6223;SDS011;3145;42.726;23.342;2023-04-06T13:35:49;13.43;;;12.03;;
6223;SDS011;3145;42.726;23.342;2023-04-06T13:38:16;16.47;;;13.13;;
6223;SDS011;3145;42.726;23.342;2023-04-06T13:40:43;15.07;;;13.07;;
6223;SDS011;3145;42.726;23.342;2023-04-06T13:43:10;18.10;;;14.50;;
6223;SDS011;3145;42.726;23.342;2023-04-06T13:45:37;15.33;;;12.40;;
6223;SDS011;3145;42.726;23.342;2023-04-06T13:48:04;19.77;;;15.40;;
6223;SDS011;3145;42.726;23.342;2023-04-06T13:50:32;12.07;;;10.97;;
6223;SDS011;3145;42.726;23.342;2023-04-06T13:53:00;18.57;;;13.47;;
6223;SDS011;3145;42.726;23.342;2023-04-06T13:55:27;16.07;;;12.90;;
6223;SDS011;3145;42.726;23.342;2023-04-06T13:57:54;20.10;;;15.13;;
6223;SDS011;3145;42.726;23.342;2023-04-06T14:00:21;23.37;;;16.40;;
6223;SDS011;3145;42.726;23.342;2023-04-06T14:02:48;18.63;;;13.23;;
6223;SDS011;3145;42.726;23.342;2023-04-06T14:05:16;16.57;;;12.67;;
6223;SDS011;3145;42.726;23.342;2023-04-06T14:07:43;20.00;;;15.47;;
6223;SDS011;3145;42.726;23.342;2023-04-06T14:10:11;16.77;;;14.23;;
6223;SDS011;3145;42.726;23.342;2023-04-06T14:12:40;17.40;;;14.03;;
6223;SDS011;3145;42.726;23.342;2023-04-06T14:15:08;20.87;;;16.40;;
6223;SDS011;3145;42.726;23.342;2023-04-06T14:17:35;21.43;;;15.50;;
6223;SDS011;3145;42.726;23.342;2023-04-06T14:20:02;17.93;;;14.83;;
6223;SDS011;3145;42.726;23.342;2023-04-06T14:22:31;29.97;;;19.83;;
6223;SDS011;3145;42.726;23.342;2023-04-06T14:24:58;19.60;;;15.83;;
6223;SDS011;3145;42.726;23.342;2023-04-06T14:27:26;26.47;;;18.20;;
6223;SDS011;3145;42.726;23.342;2023-04-06T14:29:53;17.67;;;13.10;;
6223;SDS011;3145;42.726;23.342;2023-04-06T14:32:21;18.70;;;15.43;;
6223;SDS011;3145;42.726;23.342;2023-04-06T14:34:47;19.30;;;14.43;;